Time;durP1;ratioP1;P1;durP2;ratioP2;P2;SDS_P1;SDS_P2;PMS_P1;PMS_P2;Temp;Humidity;BMP_temperature;BMP_pressure;BME280_temperature;BME280_humidity;BME280_pressure;Samples;Min_cycle;Max_cycle;Signal;HPM_P1;HPM_P2
2023/03/22 00:00:53;;;;;;;23.30;9.15;;;;;;;;;;4991859;28;20018;-79
2023/03/22 00:03:19;;;;;;;16.15;8.90;;;;;;;;;;4992141;28;20027;-78
2023/03/22 00:05:45;;;;;;;15.52;7.45;;;;;;;;;;4992812;28;20014;-77
2023/03/22 00:08:12;;;;;;;15.27;7.07;;;;;;;;;;4991425;28;20391;-78
2023/03/22 00:10:39;;;;;;;19.90;8.57;;;;;;;;;;4989777;28;20169;-78
2023/03/22 00:13:08;;;;;;;22.38;8.95;;;;;;;;;;4989691;28;20109;-78
2023/03/22 00:15:35;;;;;;;12.73;6.30;;;;;;;;;;4989391;28;20113;-78
2023/03/22 00:18:01;;;;;;;14.35;7.57;;;;;;;;;;4991042;28;20061;-78
2023/03/22 00:20:29;;;;;;;32.80;9.27;;;;;;;;;;4990693;28;20177;-78
2023/03/22 00:22:55;;;;;;;15.63;7.50;;;;;;;;;;4989866;28;20046;-78
2023/03/22 00:25:21;;;;;;;16.45;7.25;;;;;;;;;;4990241;28;20030;-79
2023/03/22 00:27:47;;;;;;;14.63;7.07;;;;;;;;;;4991577;28;20375;-79
2023/03/22 00:30:13;;;;;;;16.55;7.82;;;;;;;;;;4989510;28;20034;-79
2023/03/22 00:32:41;;;;;;;16.65;7.47;;;;;;;;;;4990835;28;20030;-79
2023/03/22 00:35:07;;;;;;;11.50;6.85;;;;;;;;;;4989711;28;20065;-79
2023/03/22 00:37:37;;;;;;;13.50;7.18;;;;;;;;;;4989942;28;20045;-79
2023/03/22 00:40:08;;;;;;;12.88;6.63;;;;;;;;;;4979206;28;20108;-79
2023/03/22 00:42:39;;;;;;;10.82;6.35;;;;;;;;;;4971636;28;20034;-79
2023/03/22 00:45:07;;;;;;;12.93;7.33;;;;;;;;;;4971812;28;20375;-79
2023/03/22 00:47:32;;;;;;;12.13;6.25;;;;;;;;;;4970425;28;20264;-79
2023/03/22 00:49:58;;;;;;;16.73;7.28;;;;;;;;;;4971638;28;20105;-78
2023/03/22 00:52:24;;;;;;;13.27;6.60;;;;;;;;;;4970529;28;20041;-79
2023/03/22 00:54:50;;;;;;;15.65;7.22;;;;;;;;;;4970177;28;20038;-78
2023/03/22 00:57:16;;;;;;;14.77;7.30;;;;;;;;;;4971422;28;20033;-80
2023/03/22 00:59:42;;;;;;;15.93;7.35;;;;;;;;;;4971931;28;20046;-78
2023/03/22 01:02:12;;;;;;;14.38;7.20;;;;;;;;;;4972818;28;20058;-78
2023/03/22 01:04:45;;;;;;;12.52;6.93;;;;;;;;;;4971138;28;20022;-78
2023/03/22 01:07:20;;;;;;;12.02;7.15;;;;;;;;;;4970482;28;20031;-79
2023/03/22 01:09:50;;;;;;;13.15;7.40;;;;;;;;;;4970019;28;20615;-78
2023/03/22 01:12:17;;;;;;;15.47;6.60;;;;;;;;;;4971694;28;20045;-78
2023/03/22 01:14:43;;;;;;;22.67;8.10;;;;;;;;;;4969914;28;20058;-78
2023/03/22 01:17:09;;;;;;;22.83;7.78;;;;;;;;;;4971572;28;20431;-79
2023/03/22 01:19:36;;;;;;;19.13;8.73;;;;;;;;;;4970857;28;20033;-80
2023/03/22 01:22:04;;;;;;;17.15;8.80;;;;;;;;;;4974288;28;20058;-79
2023/03/22 01:24:29;;;;;;;16.30;8.38;;;;;;;;;;4973537;28;20031;-79
2023/03/22 01:26:55;;;;;;;14.85;9.07;;;;;;;;;;4978715;28;20027;-79
2023/03/22 01:29:21;;;;;;;19.20;8.43;;;;;;;;;;4989422;28;20027;-77
2023/03/22 01:31:46;;;;;;;13.70;8.32;;;;;;;;;;4990263;28;20078;-77
2023/03/22 01:34:12;;;;;;;24.40;9.00;;;;;;;;;;4988266;28;20050;-78
2023/03/22 01:36:37;;;;;;;18.30;7.95;;;;;;;;;;4976085;28;20039;-75
2023/03/22 01:39:03;;;;;;;16.13;8.50;;;;;;;;;;4978460;28;20026;-80
2023/03/22 01:41:33;;;;;;;18.42;8.60;;;;;;;;;;5009616;28;20121;-79
2023/03/22 01:44:08;;;;;;;21.25;8.82;;;;;;;;;;4993592;28;20110;-80
2023/03/22 01:46:33;;;;;;;21.00;8.30;;;;;;;;;;4993230;28;20208;-78
2023/03/22 01:49:01;;;;;;;15.02;7.43;;;;;;;;;;4993033;28;20400;-80
2023/03/22 01:51:27;;;;;;;19.65;8.65;;;;;;;;;;4994657;28;20037;-79
2023/03/22 01:53:59;;;;;;;15.68;7.80;;;;;;;;;;4994635;28;20026;-79
2023/03/22 01:56:27;;;;;;;17.40;7.97;;;;;;;;;;4994528;28;20023;-79
2023/03/22 01:58:54;;;;;;;14.52;7.43;;;;;;;;;;4993894;28;20037;-78
2023/03/22 02:01:21;;;;;;;16.33;7.95;;;;;;;;;;4994296;28;20046;-78
2023/03/22 02:04:14;;;;;;;16.85;8.00;;;;;;;;;;4992938;28;20029;-78
2023/03/22 02:06:40;;;;;;;17.30;7.70;;;;;;;;;;4996982;28;20506;-78
2023/03/22 02:09:08;;;;;;;13.70;6.63;;;;;;;;;;5011234;28;20029;-78
2023/03/22 02:11:42;;;;;;;14.45;7.53;;;;;;;;;;4993714;28;20493;-78
2023/03/22 02:14:19;;;;;;;15.25;6.55;;;;;;;;;;4993419;28;20094;-77
2023/03/22 02:16:50;;;;;;;17.58;7.32;;;;;;;;;;4990911;28;20093;-77
2023/03/22 02:19:50;;;;;;;14.65;7.57;;;;;;;;;;4991693;28;20038;-78
2023/03/22 02:22:37;;;;;;;14.88;7.03;;;;;;;;;;4991872;28;20037;-77
2023/03/22 02:25:25;;;;;;;16.35;6.82;;;;;;;;;;4992138;28;20100;-80
2023/03/22 02:28:12;;;;;;;17.27;6.60;;;;;;;;;;4992808;28;20026;-80
2023/03/22 02:30:47;;;;;;;14.23;7.53;;;;;;;;;;4993340;28;20034;-76
2023/03/22 02:33:30;;;;;;;13.38;7.70;;;;;;;;;;4993491;28;20050;-75
2023/03/22 02:36:38;;;;;;;12.45;7.75;;;;;;;;;;4992985;28;20065;-75
2023/03/22 02:39:33;;;;;;;16.08;7.72;;;;;;;;;;4973598;28;20031;-75
2023/03/22 02:42:15;;;;;;;16.98;8.40;;;;;;;;;;4971686;28;20081;-76
2023/03/22 02:44:43;;;;;;;14.25;8.45;;;;;;;;;;4975462;28;20030;-75
2023/03/22 02:47:23;;;;;;;18.40;8.85;;;;;;;;;;4992609;28;20018;-75
2023/03/22 02:50:04;;;;;;;21.90;9.18;;;;;;;;;;4991413;28;20132;-75
2023/03/22 02:52:40;;;;;;;17.65;8.63;;;;;;;;;;5007626;28;20065;-75
2023/03/22 02:55:23;;;;;;;15.55;9.60;;;;;;;;;;4993090;28;20015;-75
2023/03/22 02:57:55;;;;;;;14.55;8.73;;;;;;;;;;4994289;28;20452;-75
2023/03/22 03:00:20;;;;;;;14.60;7.88;;;;;;;;;;4992255;28;20038;-75
2023/03/22 03:03:09;;;;;;;15.60;8.13;;;;;;;;;;4992686;28;20041;-75
2023/03/22 03:05:41;;;;;;;14.57;7.47;;;;;;;;;;5007573;28;20031;-75
2023/03/22 03:08:09;;;;;;;13.18;7.57;;;;;;;;;;5008844;28;20037;-75
2023/03/22 03:10:36;;;;;;;18.25;8.30;;;;;;;;;;4992754;28;20034;-75
2023/03/22 03:13:01;;;;;;;15.95;7.28;;;;;;;;;;4992506;28;20038;-75
2023/03/22 03:15:27;;;;;;;25.40;7.63;;;;;;;;;;5007197;28;20019;-76
2023/03/22 03:17:55;;;;;;;21.60;7.10;;;;;;;;;;4991722;28;20080;-75
2023/03/22 03:20:53;;;;;;;17.55;7.50;;;;;;;;;;4991083;28;20022;-76
2023/03/22 03:23:32;;;;;;;12.57;7.15;;;;;;;;;;4992239;28;20065;-76
2023/03/22 03:26:00;;;;;;;15.70;7.35;;;;;;;;;;4992175;28;20053;-76
2023/03/22 03:29:18;;;;;;;15.02;7.72;;;;;;;;;;4992294;28;20031;-76
2023/03/22 03:31:52;;;;;;;16.50;6.93;;;;;;;;;;4916340;29;20035;-76
2023/03/22 03:34:25;;;;;;;18.77;7.03;;;;;;;;;;4917916;29;20039;-76
2023/03/22 03:37:22;;;;;;;25.20;9.02;;;;;;;;;;4968220;28;20042;-76
2023/03/22 03:40:04;;;;;;;13.70;6.80;;;;;;;;;;4987902;28;20093;-75
2023/03/22 03:42:30;;;;;;;16.42;7.75;;;;;;;;;;4993430;28;20129;-76
2023/03/22 03:44:57;;;;;;;13.57;6.80;;;;;;;;;;4992761;28;20038;-76
2023/03/22 03:47:24;;;;;;;15.70;7.25;;;;;;;;;;5007801;28;20093;-76
2023/03/22 03:49:52;;;;;;;15.70;7.25;;;;;;;;;;4992149;28;20085;-76
2023/03/22 03:52:18;;;;;;;31.23;7.55;;;;;;;;;;4990732;28;20074;-76
2023/03/22 03:54:44;;;;;;;14.50;6.75;;;;;;;;;;4990167;28;20068;-77
2023/03/22 03:57:10;;;;;;;13.82;6.88;;;;;;;;;;4991896;28;20096;-77
2023/03/22 03:59:36;;;;;;;19.02;7.25;;;;;;;;;;4990853;28;20387;-77
2023/03/22 04:02:02;;;;;;;14.95;7.07;;;;;;;;;;4990221;28;20057;-77
2023/03/22 04:04:28;;;;;;;20.25;8.25;;;;;;;;;;4991555;28;20602;-77
2023/03/22 04:06:57;;;;;;;19.45;7.18;;;;;;;;;;5022526;28;20113;-76
2023/03/22 04:09:27;;;;;;;14.57;7.55;;;;;;;;;;4990110;28;20026;-76
2023/03/22 04:11:54;;;;;;;16.15;7.40;;;;;;;;;;4991728;28;20108;-76
2023/03/22 04:14:20;;;;;;;19.92;7.15;;;;;;;;;;4991517;28;20227;-76
2023/03/22 04:16:46;;;;;;;19.08;8.30;;;;;;;;;;4989854;28;20094;-75
2023/03/22 04:19:12;;;;;;;15.80;7.50;;;;;;;;;;4990179;28;20066;-74
2023/03/22 04:21:38;;;;;;;12.93;7.53;;;;;;;;;;4990529;28;20165;-76
2023/03/22 04:24:04;;;;;;;12.75;6.95;;;;;;;;;;4991349;28;20105;-76
2023/03/22 04:26:30;;;;;;;16.33;7.80;;;;;;;;;;4990077;28;20034;-76
2023/03/22 04:28:57;;;;;;;14.38;7.80;;;;;;;;;;4989664;28;20392;-76
2023/03/22 04:31:23;;;;;;;13.50;7.25;;;;;;;;;;4990145;28;20368;-76
2023/03/22 04:33:55;;;;;;;17.63;8.35;;;;;;;;;;4991221;28;20028;-76
2023/03/22 04:36:24;;;;;;;13.52;8.13;;;;;;;;;;4990086;28;20380;-76
2023/03/22 04:38:50;;;;;;;13.32;7.50;;;;;;;;;;5020743;28;20042;-76
2023/03/22 04:41:16;;;;;;;18.60;8.27;;;;;;;;;;4971662;28;20559;-76
2023/03/22 04:43:45;;;;;;;12.50;7.63;;;;;;;;;;4972343;28;20448;-76
2023/03/22 04:46:12;;;;;;;13.90;7.70;;;;;;;;;;4970368;28;20018;-76
2023/03/22 04:48:39;;;;;;;16.20;8.15;;;;;;;;;;4970616;28;20030;-76
2023/03/22 04:51:08;;;;;;;14.68;8.05;;;;;;;;;;4960595;28;20026;-76
2023/03/22 04:53:38;;;;;;;17.77;7.15;;;;;;;;;;4990743;28;20034;-76
2023/03/22 04:56:08;;;;;;;14.15;7.57;;;;;;;;;;4989006;28;20080;-76
2023/03/22 04:58:38;;;;;;;20.10;10.23;;;;;;;;;;4989581;28;20031;-76
2023/03/22 05:01:04;;;;;;;16.33;7.97;;;;;;;;;;4990414;28;20019;-77
2023/03/22 05:03:29;;;;;;;13.00;7.90;;;;;;;;;;4989933;28;20034;-76
2023/03/22 05:05:58;;;;;;;13.68;7.88;;;;;;;;;;4990791;28;20027;-77
2023/03/22 05:08:24;;;;;;;24.27;9.45;;;;;;;;;;4995337;28;20076;-77
2023/03/22 05:10:55;;;;;;;16.17;7.78;;;;;;;;;;4995170;28;20179;-77
2023/03/22 05:13:23;;;;;;;16.67;7.45;;;;;;;;;;4995020;28;20038;-76
2023/03/22 05:15:50;;;;;;;17.33;8.63;;;;;;;;;;4995392;28;20018;-76
2023/03/22 05:18:19;;;;;;;17.65;8.38;;;;;;;;;;4996569;28;20038;-77
2023/03/22 05:20:45;;;;;;;15.40;7.97;;;;;;;;;;5001868;28;20033;-77
2023/03/22 05:23:12;;;;;;;16.58;8.32;;;;;;;;;;4999289;28;20105;-75
2023/03/22 05:25:37;;;;;;;15.60;7.53;;;;;;;;;;4999298;28;20027;-77
2023/03/22 05:28:04;;;;;;;19.52;8.73;;;;;;;;;;4998039;28;20493;-76
2023/03/22 05:30:30;;;;;;;16.80;8.40;;;;;;;;;;4996386;28;20037;-75
2023/03/22 05:33:01;;;;;;;16.67;8.63;;;;;;;;;;4996609;28;20049;-75
2023/03/22 05:35:29;;;;;;;26.15;9.43;;;;;;;;;;4995087;28;20026;-76
2023/03/22 05:37:55;;;;;;;16.70;8.05;;;;;;;;;;4998227;28;20034;-75
2023/03/22 05:40:21;;;;;;;14.55;8.10;;;;;;;;;;4997268;28;20172;-76
2023/03/22 05:42:47;;;;;;;21.73;8.60;;;;;;;;;;4999876;28;20026;-75
2023/03/22 05:45:12;;;;;;;16.35;8.30;;;;;;;;;;5015383;28;20086;-76
2023/03/22 05:47:39;;;;;;;21.92;8.73;;;;;;;;;;5001702;28;20032;-76
2023/03/22 05:50:07;;;;;;;22.45;9.05;;;;;;;;;;4995186;28;20092;-76
2023/03/22 05:52:33;;;;;;;19.65;8.50;;;;;;;;;;4997472;28;20030;-73
2023/03/22 05:55:00;;;;;;;15.63;8.07;;;;;;;;;;4992610;28;20036;-76
2023/03/22 05:57:26;;;;;;;15.65;8.85;;;;;;;;;;4982209;28;20042;-74
2023/03/22 05:59:52;;;;;;;20.67;9.20;;;;;;;;;;4988076;28;20022;-74
2023/03/22 06:02:20;;;;;;;21.02;8.43;;;;;;;;;;4988830;28;20022;-74
2023/03/22 06:04:46;;;;;;;19.90;8.40;;;;;;;;;;4991534;28;20042;-77
2023/03/22 06:07:13;;;;;;;15.82;8.30;;;;;;;;;;4992998;28;20026;-76
2023/03/22 06:09:40;;;;;;;12.55;7.13;;;;;;;;;;4991219;28;20054;-76
2023/03/22 06:12:06;;;;;;;18.25;8.02;;;;;;;;;;4989765;28;20033;-75
2023/03/22 06:14:31;;;;;;;18.95;7.95;;;;;;;;;;4993172;28;20026;-75
2023/03/22 06:16:57;;;;;;;15.32;8.10;;;;;;;;;;4993047;28;20034;-74
2023/03/22 06:19:27;;;;;;;16.55;7.85;;;;;;;;;;4992486;28;20097;-77
2023/03/22 06:21:55;;;;;;;16.77;7.72;;;;;;;;;;4986373;28;20030;-73
2023/03/22 06:24:22;;;;;;;19.45;7.60;;;;;;;;;;4995344;28;20089;-75
2023/03/22 06:26:48;;;;;;;11.63;6.38;;;;;;;;;;4997749;28;20024;-75
2023/03/22 06:29:13;;;;;;;24.27;12.13;;;;;;;;;;5001091;28;20113;-76
2023/03/22 06:31:39;;;;;;;16.85;7.93;;;;;;;;;;5002948;28;20565;-77
2023/03/22 06:34:05;;;;;;;14.02;6.90;;;;;;;;;;5001863;28;20026;-76
2023/03/22 06:36:36;;;;;;;19.52;10.68;;;;;;;;;;4994751;28;20065;-74
2023/03/22 06:39:03;;;;;;;22.60;8.40;;;;;;;;;;4991731;28;20086;-73
2023/03/22 06:41:34;;;;;;;17.75;7.93;;;;;;;;;;4979093;28;20027;-75
2023/03/22 06:44:01;;;;;;;19.45;8.35;;;;;;;;;;4984978;28;20026;-73
2023/03/22 06:46:27;;;;;;;20.88;7.07;;;;;;;;;;4985951;28;20034;-77
2023/03/22 06:48:52;;;;;;;16.73;7.82;;;;;;;;;;4987150;28;20031;-80
2023/03/22 06:51:18;;;;;;;12.85;7.45;;;;;;;;;;4991695;28;20101;-73
2023/03/22 06:53:45;;;;;;;12.50;6.95;;;;;;;;;;4984997;28;20038;-80
2023/03/22 06:56:11;;;;;;;13.50;6.93;;;;;;;;;;4978182;28;20023;-76
2023/03/22 06:58:36;;;;;;;12.13;6.38;;;;;;;;;;4980977;28;20045;-76
2023/03/22 07:01:02;;;;;;;18.50;7.03;;;;;;;;;;4988786;28;20054;-74
2023/03/22 07:03:28;;;;;;;13.50;7.20;;;;;;;;;;4983675;28;20038;-77
2023/03/22 07:06:00;;;;;;;12.38;6.35;;;;;;;;;;4987794;28;20077;-74
2023/03/22 07:08:26;;;;;;;14.73;6.63;;;;;;;;;;4986617;28;20459;-74
2023/03/22 07:10:52;;;;;;;24.75;7.43;;;;;;;;;;4980365;28;20080;-74
2023/03/22 07:13:17;;;;;;;39.20;12.70;;;;;;;;;;4985846;28;20026;-76
2023/03/22 07:15:43;;;;;;;21.73;9.70;;;;;;;;;;4987780;28;20100;-79
2023/03/22 07:18:08;;;;;;;18.48;6.72;;;;;;;;;;4990079;28;20570;-77
2023/03/22 07:20:37;;;;;;;15.23;5.95;;;;;;;;;;4984833;28;20126;-77
2023/03/22 07:23:03;;;;;;;14.18;5.93;;;;;;;;;;4982969;28;20034;-76
2023/03/22 07:25:28;;;;;;;16.50;5.97;;;;;;;;;;4984754;28;20030;-77
2023/03/22 07:27:55;;;;;;;16.27;6.55;;;;;;;;;;4988665;28;20032;-75
2023/03/22 07:30:24;;;;;;;9.90;5.40;;;;;;;;;;4982253;28;20061;-81
2023/03/22 07:32:49;;;;;;;12.38;5.10;;;;;;;;;;4977862;28;20474;-75
2023/03/22 07:35:15;;;;;;;16.40;5.57;;;;;;;;;;4980210;28;20093;-79
2023/03/22 07:37:43;;;;;;;8.68;5.30;;;;;;;;;;4986592;28;20047;-77
2023/03/22 07:40:09;;;;;;;10.27;4.93;;;;;;;;;;4983599;28;20034;-76
2023/03/22 07:42:34;;;;;;;11.82;5.75;;;;;;;;;;4977353;28;20033;-77
2023/03/22 07:45:00;;;;;;;19.80;4.95;;;;;;;;;;4988230;28;20402;-80
2023/03/22 07:47:26;;;;;;;17.60;6.00;;;;;;;;;;4991250;28;20034;-74
2023/03/22 07:49:53;;;;;;;10.50;4.85;;;;;;;;;;4978558;28;20832;-76
2023/03/22 07:52:19;;;;;;;9.13;4.65;;;;;;;;;;4977241;28;20513;-79
2023/03/22 07:54:48;;;;;;;7.85;4.75;;;;;;;;;;4970499;28;20046;-81
2023/03/22 07:57:16;;;;;;;17.10;5.90;;;;;;;;;;4985838;28;20089;-77
2023/03/22 07:59:43;;;;;;;6.43;4.15;;;;;;;;;;4987877;28;20117;-77
2023/03/22 08:02:09;;;;;;;7.75;4.35;;;;;;;;;;4984917;28;20022;-74
2023/03/22 08:04:36;;;;;;;11.52;4.28;;;;;;;;;;4988688;28;20026;-77
2023/03/22 08:07:01;;;;;;;6.38;4.13;;;;;;;;;;4983674;28;20084;-77
2023/03/22 08:09:30;;;;;;;14.60;3.78;;;;;;;;;;4968031;28;20443;-75
2023/03/22 08:11:55;;;;;;;6.40;3.28;;;;;;;;;;4979434;28;20038;-77
2023/03/22 08:14:21;;;;;;;12.65;4.50;;;;;;;;;;4988853;28;20034;-76
2023/03/22 08:16:46;;;;;;;7.30;4.40;;;;;;;;;;4987456;28;20043;-79
2023/03/22 08:19:12;;;;;;;8.57;4.03;;;;;;;;;;4987484;28;20034;-79
2023/03/22 08:21:40;;;;;;;12.07;4.05;;;;;;;;;;4985502;28;20030;-78
2023/03/22 08:24:06;;;;;;;8.15;4.10;;;;;;;;;;4983570;28;20066;-77
2023/03/22 08:26:32;;;;;;;10.02;3.28;;;;;;;;;;4968806;28;20038;-75
2023/03/22 08:28:58;;;;;;;12.15;4.38;;;;;;;;;;4977022;28;20089;-79
2023/03/22 08:31:24;;;;;;;9.02;3.58;;;;;;;;;;4970917;28;20042;-79
2023/03/22 08:33:49;;;;;;;7.97;3.40;;;;;;;;;;4975891;28;20030;-75
2023/03/22 08:36:18;;;;;;;10.43;3.78;;;;;;;;;;4986274;28;20037;-79
2023/03/22 08:38:44;;;;;;;8.35;4.47;;;;;;;;;;4971398;28;20041;-77
2023/03/22 08:41:11;;;;;;;8.68;3.60;;;;;;;;;;4979759;28;20038;-78
2023/03/22 08:43:37;;;;;;;10.57;3.60;;;;;;;;;;4984540;28;20650;-79
2023/03/22 08:46:02;;;;;;;5.82;3.00;;;;;;;;;;4981989;28;20027;-78
2023/03/22 08:48:29;;;;;;;9.07;3.60;;;;;;;;;;4978820;28;20297;-76
2023/03/22 08:50:55;;;;;;;7.70;3.28;;;;;;;;;;4983426;28;20025;-76
2023/03/22 08:53:21;;;;;;;11.10;3.63;;;;;;;;;;4986693;28;20076;-75
2023/03/22 08:55:47;;;;;;;7.07;3.60;;;;;;;;;;4984510;28;20570;-73
2023/03/22 08:58:24;;;;;;;8.23;3.47;;;;;;;;;;4984884;28;20081;-74
2023/03/22 09:00:50;;;;;;;10.38;3.25;;;;;;;;;;4983419;28;20022;-76
2023/03/22 09:03:16;;;;;;;8.98;3.00;;;;;;;;;;4971887;28;21310;-75
2023/03/22 09:05:43;;;;;;;6.85;2.63;;;;;;;;;;4970474;28;20064;-75
2023/03/22 09:08:28;;;;;;;8.02;3.28;;;;;;;;;;4973037;28;20038;-76
2023/03/22 09:10:56;;;;;;;7.32;3.80;;;;;;;;;;4988566;28;20844;-73
2023/03/22 09:13:22;;;;;;;6.30;3.25;;;;;;;;;;4961806;28;20433;-73
2023/03/22 09:15:50;;;;;;;8.82;2.95;;;;;;;;;;4954052;28;20109;-76
2023/03/22 09:18:15;;;;;;;4.70;2.15;;;;;;;;;;4978867;28;20133;-77
2023/03/22 09:20:43;;;;;;;7.75;2.17;;;;;;;;;;4980788;28;20137;-77
2023/03/22 09:23:08;;;;;;;5.22;2.33;;;;;;;;;;4978573;28;20058;-78
2023/03/22 09:25:34;;;;;;;3.47;2.03;;;;;;;;;;4978813;28;21360;-76
2023/03/22 09:28:01;;;;;;;8.35;3.38;;;;;;;;;;4982673;28;20370;-80
2023/03/22 09:30:27;;;;;;;7.60;2.55;;;;;;;;;;4981572;28;20104;-78
2023/03/22 09:32:53;;;;;;;4.55;2.10;;;;;;;;;;4978684;28;20038;-77
2023/03/22 09:35:20;;;;;;;2.72;2.35;;;;;;;;;;4981557;28;20026;-77
2023/03/22 09:37:48;;;;;;;7.32;2.05;;;;;;;;;;4978760;28;20493;-78
2023/03/22 09:40:14;;;;;;;3.80;2.42;;;;;;;;;;4987273;28;20415;-78
2023/03/22 09:42:45;;;;;;;8.10;2.72;;;;;;;;;;4979078;28;20352;-78
2023/03/22 09:45:16;;;;;;;3.47;2.33;;;;;;;;;;4980551;28;20314;-77
2023/03/22 09:47:49;;;;;;;3.80;2.70;;;;;;;;;;4978248;28;20030;-74
2023/03/22 09:50:22;;;;;;;5.22;2.50;;;;;;;;;;4972958;28;20073;-76
2023/03/22 09:52:49;;;;;;;5.32;2.55;;;;;;;;;;4979062;28;20142;-75
2023/03/22 09:55:41;;;;;;;10.02;3.90;;;;;;;;;;4979392;28;20037;-74
2023/03/22 09:58:28;;;;;;;5.15;1.80;;;;;;;;;;4979405;28;20038;-76
2023/03/22 10:01:21;;;;;;;4.40;2.50;;;;;;;;;;4973899;28;20058;-77
2023/03/22 10:04:08;;;;;;;6.72;2.05;;;;;;;;;;5000900;28;20117;-79
2023/03/22 10:06:34;;;;;;;4.70;2.50;;;;;;;;;;4999109;28;20037;-74
2023/03/22 10:09:14;;;;;;;4.47;2.78;;;;;;;;;;4979403;28;20035;-76
2023/03/22 10:12:03;;;;;;;8.07;3.80;;;;;;;;;;4990176;28;20360;-73
2023/03/22 10:14:34;;;;;;;11.10;3.08;;;;;;;;;;4971473;28;20248;-74
2023/03/22 10:17:09;;;;;;;7.03;2.38;;;;;;;;;;4974856;28;20061;-74
2023/03/22 10:19:40;;;;;;;4.72;2.03;;;;;;;;;;4980513;28;20030;-77
2023/03/22 10:22:08;;;;;;;;;;;;;;;;;;4998088;28;20030;-76
2023/03/22 10:24:37;;;;;;;3.17;2.50;;;;;;;;;;4987264;28;19917;-77
2023/03/22 10:27:10;;;;;;;4.95;2.15;;;;;;;;;;4982545;28;20128;-75
2023/03/22 10:29:42;;;;;;;10.93;3.15;;;;;;;;;;4981294;28;20069;-77
2023/03/22 10:32:14;;;;;;;4.07;3.03;;;;;;;;;;4998061;28;20051;-76
2023/03/22 10:34:39;;;;;;;5.80;4.32;;;;;;;;;;4982430;28;20057;-74
2023/03/22 10:37:09;;;;;;;3.45;1.95;;;;;;;;;;4973654;28;20113;-74
2023/03/22 10:39:41;;;;;;;3.58;1.98;;;;;;;;;;4981641;28;20042;-75
2023/03/22 10:42:13;;;;;;;2.70;1.52;;;;;;;;;;4988518;28;20026;-77
2023/03/22 10:44:51;;;;;;;3.10;1.67;;;;;;;;;;4986172;28;20032;-73
2023/03/22 10:47:28;;;;;;;3.00;1.60;;;;;;;;;;4985908;28;20104;-73
2023/03/22 10:49:56;;;;;;;2.25;1.50;;;;;;;;;;4984842;28;20097;-74
2023/03/22 10:52:33;;;;;;;3.15;1.95;;;;;;;;;;4988570;28;20046;-74
2023/03/22 10:55:00;;;;;;;5.00;1.85;;;;;;;;;;4984648;28;20034;-74
2023/03/22 10:57:25;;;;;;;3.33;2.35;;;;;;;;;;4985861;28;20041;-77
2023/03/22 10:59:55;;;;;;;4.35;2.22;;;;;;;;;;4984500;28;20053;-75
2023/03/22 11:02:22;;;;;;;3.13;1.75;;;;;;;;;;4983422;28;20053;-76
2023/03/22 11:04:50;;;;;;;8.80;5.18;;;;;;;;;;4986962;28;20132;-76
2023/03/22 11:07:36;;;;;;;13.77;4.70;;;;;;;;;;4982918;28;20651;-76
2023/03/22 11:10:07;;;;;;;2.83;2.22;;;;;;;;;;4986524;28;20038;-72
2023/03/22 11:12:36;;;;;;;4.63;2.30;;;;;;;;;;4982848;28;20166;-75
2023/03/22 11:15:05;;;;;;;5.68;1.90;;;;;;;;;;4995761;28;20212;-78
2023/03/22 11:17:32;;;;;;;4.90;2.25;;;;;;;;;;4983256;28;20077;-77
2023/03/22 11:20:00;;;;;;;5.93;1.85;;;;;;;;;;4982786;28;20034;-76
2023/03/22 11:22:32;;;;;;;4.35;1.98;;;;;;;;;;4982117;28;20034;-76
2023/03/22 11:24:59;;;;;;;2.63;1.70;;;;;;;;;;4981607;28;20066;-75
2023/03/22 11:27:30;;;;;;;3.70;2.08;;;;;;;;;;4978563;28;20700;-75
2023/03/22 11:30:15;;;;;;;3.30;1.60;;;;;;;;;;4986711;28;20034;-72
2023/03/22 11:32:41;;;;;;;2.60;1.90;;;;;;;;;;4994113;28;20033;-80
2023/03/22 11:35:21;;;;;;;6.55;2.25;;;;;;;;;;5002823;28;20105;-75
2023/03/22 11:37:51;;;;;;;1.90;1.63;;;;;;;;;;4991882;28;20088;-76
2023/03/22 11:40:18;;;;;;;4.72;1.70;;;;;;;;;;4982565;28;20432;-76
2023/03/22 11:42:45;;;;;;;3.50;1.40;;;;;;;;;;4980700;28;20037;-75
2023/03/22 11:45:21;;;;;;;1.83;1.52;;;;;;;;;;4981347;28;20256;-77
2023/03/22 11:47:46;;;;;;;2.65;1.30;;;;;;;;;;4984076;28;20475;-75
2023/03/22 11:50:27;;;;;;;3.05;1.38;;;;;;;;;;4982263;28;20027;-76
2023/03/22 11:52:55;;;;;;;3.33;1.25;;;;;;;;;;4979497;28;20398;-76
2023/03/22 11:55:25;;;;;;;1.10;0.90;;;;;;;;;;4973817;28;20046;-75
2023/03/22 11:57:54;;;;;;;2.35;0.95;;;;;;;;;;4973951;28;20112;-75
2023/03/22 12:00:29;;;;;;;2.10;0.90;;;;;;;;;;4984523;28;20041;-75
2023/03/22 12:03:15;;;;;;;4.35;1.15;;;;;;;;;;4982481;28;20185;-77
2023/03/22 12:05:43;;;;;;;4.70;1.30;;;;;;;;;;4978819;28;20095;-76
2023/03/22 12:08:12;;;;;;;1.50;1.00;;;;;;;;;;4981499;28;20368;-78
2023/03/22 12:10:41;;;;;;;1.73;1.30;;;;;;;;;;4984691;28;20033;-76
2023/03/22 12:13:36;;;;;;;7.13;1.58;;;;;;;;;;4986698;28;20027;-75
2023/03/22 12:16:06;;;;;;;2.22;1.30;;;;;;;;;;4984938;28;20503;-77
2023/03/22 12:18:47;;;;;;;8.18;1.42;;;;;;;;;;4983062;28;20817;-77
2023/03/22 12:21:13;;;;;;;4.07;1.50;;;;;;;;;;4980921;28;20038;-76
2023/03/22 12:23:38;;;;;;;3.72;1.20;;;;;;;;;;4984458;28;20088;-78
2023/03/22 12:26:24;;;;;;;5.43;1.60;;;;;;;;;;4982947;28;20037;-77
2023/03/22 12:28:53;;;;;;;2.78;2.22;;;;;;;;;;4986405;28;20058;-77
2023/03/22 12:31:23;;;;;;;2.67;1.38;;;;;;;;;;4983711;28;20431;-77
2023/03/22 12:34:01;;;;;;;2.42;1.33;;;;;;;;;;4986172;28;20725;-76
2023/03/22 12:36:42;;;;;;;2.65;1.35;;;;;;;;;;4979800;28;20061;-78
2023/03/22 12:39:18;;;;;;;3.70;1.10;;;;;;;;;;4982128;28;20037;-76
2023/03/22 12:41:49;;;;;;;2.58;1.30;;;;;;;;;;4980069;28;20785;-75
2023/03/22 12:44:28;;;;;;;4.72;1.50;;;;;;;;;;4982777;28;20355;-76
2023/03/22 12:47:16;;;;;;;3.28;1.30;;;;;;;;;;4979586;28;20023;-78
2023/03/22 12:50:11;;;;;;;4.00;1.48;;;;;;;;;;4976699;28;20038;-77
2023/03/22 12:52:48;;;;;;;2.55;1.40;;;;;;;;;;4985257;28;20027;-77
2023/03/22 12:55:26;;;;;;;2.95;1.35;;;;;;;;;;4981097;28;20038;-74
2023/03/22 12:57:53;;;;;;;5.35;1.48;;;;;;;;;;4984160;28;20542;-77
2023/03/22 13:00:26;;;;;;;5.78;1.85;;;;;;;;;;4980159;28;20814;-74
2023/03/22 13:03:17;;;;;;;5.05;1.27;;;;;;;;;;4983646;28;20026;-77
2023/03/22 13:05:49;;;;;;;5.47;1.40;;;;;;;;;;4983655;28;20033;-78
2023/03/22 13:08:20;;;;;;;6.60;1.65;;;;;;;;;;4987130;28;20077;-79
2023/03/22 13:11:04;;;;;;;1.90;1.20;;;;;;;;;;4985849;28;20026;-76
2023/03/22 13:13:42;;;;;;;2.60;1.45;;;;;;;;;;4991964;28;20046;-76
2023/03/22 13:16:07;;;;;;;5.60;1.23;;;;;;;;;;4988859;28;20027;-75
2023/03/22 13:18:37;;;;;;;2.22;1.40;;;;;;;;;;4991373;28;20515;-76
2023/03/22 13:21:18;;;;;;;7.60;1.15;;;;;;;;;;4985428;28;20034;-78
2023/03/22 13:23:55;;;;;;;;;;;;;;;;;;4985146;28;20037;-75
2023/03/22 13:26:30;;;;;;;5.22;1.55;;;;;;;;;;4987887;28;19920;-79
2023/03/22 13:29:06;;;;;;;4.53;1.38;;;;;;;;;;4990493;28;20819;-80
2023/03/22 13:31:59;;;;;;;2.58;1.10;;;;;;;;;;4991511;28;20133;-75
2023/03/22 13:34:48;;;;;;;2.83;0.98;;;;;;;;;;4987906;28;20049;-81
2023/03/22 13:37:47;;;;;;;2.45;1.15;;;;;;;;;;4989690;28;20072;-74
2023/03/22 13:40:38;;;;;;;3.00;1.48;;;;;;;;;;4999697;28;20030;-75
2023/03/22 13:43:32;;;;;;;4.47;1.40;;;;;;;;;;4987078;28;20114;-75
2023/03/22 13:46:12;;;;;;;2.70;1.00;;;;;;;;;;4982808;28;20053;-75
2023/03/22 13:48:47;;;;;;;5.28;1.17;;;;;;;;;;4988864;28;20030;-80
2023/03/22 13:51:22;;;;;;;1.27;1.10;;;;;;;;;;4990351;28;20140;-80
2023/03/22 13:54:15;;;;;;;1.95;1.35;;;;;;;;;;4987024;28;20494;-78
2023/03/22 13:56:43;;;;;;;4.00;1.23;;;;;;;;;;5002055;28;20121;-75
2023/03/22 13:59:10;;;;;;;3.10;1.00;;;;;;;;;;4992046;28;20034;-75
2023/03/22 14:01:44;;;;;;;3.13;1.10;;;;;;;;;;4992811;28;20038;-77
2023/03/22 14:04:14;;;;;;;4.03;1.30;;;;;;;;;;4989587;28;20105;-77
2023/03/22 14:06:56;;;;;;;10.18;1.65;;;;;;;;;;4992659;28;20100;-76
2023/03/22 14:09:29;;;;;;;1.50;1.05;;;;;;;;;;4993400;28;20248;-75
2023/03/22 14:12:15;;;;;;;2.95;1.33;;;;;;;;;;4990572;28;20094;-79
2023/03/22 14:14:47;;;;;;;4.85;1.83;;;;;;;;;;4966630;28;20052;-78
2023/03/22 14:17:25;;;;;;;3.08;1.20;;;;;;;;;;4968205;28;20035;-73
2023/03/22 14:19:57;;;;;;;1.40;1.10;;;;;;;;;;4985714;28;20138;-77
2023/03/22 14:22:37;;;;;;;3.17;1.30;;;;;;;;;;4987936;28;20037;-80
2023/03/22 14:25:04;;;;;;;2.42;1.52;;;;;;;;;;4985836;28;20026;-75
2023/03/22 14:27:32;;;;;;;2.30;1.20;;;;;;;;;;4984814;28;20018;-75
2023/03/22 14:29:58;;;;;;;1.65;1.00;;;;;;;;;;4988424;28;20038;-73
2023/03/22 14:32:29;;;;;;;2.38;0.98;;;;;;;;;;4984083;28;20695;-74
2023/03/22 14:35:09;;;;;;;;;;;;;;;;;;4986020;28;20038;-74
2023/03/22 14:37:38;;;;;;;4.10;1.17;;;;;;;;;;5002119;28;19918;-73
2023/03/22 14:40:32;;;;;;;0.93;0.93;;;;;;;;;;4985265;28;20030;-76
2023/03/22 14:43:24;;;;;;;5.50;1.75;;;;;;;;;;4984332;28;20030;-77
2023/03/22 14:46:21;;;;;;;3.53;1.35;;;;;;;;;;4988260;28;20161;-73
2023/03/22 14:48:53;;;;;;;5.60;1.30;;;;;;;;;;4985309;28;20042;-72
2023/03/22 14:51:34;;;;;;;2.63;1.38;;;;;;;;;;4983841;28;20057;-73
2023/03/22 14:54:06;;;;;;;1.25;1.15;;;;;;;;;;4989177;28;20775;-75
2023/03/22 14:56:38;;;;;;;1.73;1.10;;;;;;;;;;4968448;28;20026;-76
2023/03/22 14:59:04;;;;;;;;;;;;;;;;;;4973256;28;20076;-76